createdAt,value
2022-10-24T00:03:22.201Z,1885
2022-10-24T00:08:40.969Z,1880
2022-10-24T00:13:59.459Z,1871
2022-10-24T00:19:18.227Z,1868
2022-10-24T00:24:36.689Z,1876
2022-10-24T00:29:54.943Z,1870
2022-10-24T00:35:13.360Z,1875
2022-10-24T00:40:31.871Z,1872
2022-10-24T00:45:50.064Z,1873
2022-10-24T00:51:08.287Z,1863
2022-10-24T00:56:26.773Z,1857
2022-10-24T01:01:45.307Z,1853
2022-10-24T01:07:03.872Z,1846
2022-10-24T01:12:22.377Z,1845
2022-10-24T01:17:40.593Z,1844
2022-10-24T01:22:58.796Z,1838
2022-10-24T01:28:17.003Z,1838
2022-10-24T01:33:35.781Z,1844
2022-10-24T01:38:54.562Z,1843
2022-10-24T01:44:13.016Z,1828
2022-10-24T01:49:31.821Z,1818
2022-10-24T01:54:50.308Z,1821
2022-10-24T02:00:08.793Z,1812
2022-10-24T02:05:27.323Z,1815
2022-10-24T02:10:46.054Z,1814
2022-10-24T02:16:04.265Z,1814
2022-10-24T02:21:22.522Z,1817
2022-10-24T02:26:25.339Z,1844
2022-10-24T02:31:43.556Z,1832
2022-10-24T02:37:02.081Z,1812
2022-10-24T02:42:20.321Z,1805
2022-10-24T02:47:38.347Z,1812
2022-10-24T02:52:56.294Z,1809
2022-10-24T02:58:15.042Z,1799
2022-10-24T03:03:33.833Z,1803
2022-10-24T03:08:52.649Z,1808
2022-10-24T03:14:10.816Z,1796
2022-10-24T03:19:29.021Z,1795
2022-10-24T03:24:54.964Z,1814
2022-10-24T03:30:13.679Z,1805
2022-10-24T03:35:31.849Z,1850
2022-10-24T03:40:50.370Z,1817
2022-10-24T03:46:08.666Z,1797
2022-10-24T03:51:27.480Z,1784
2022-10-24T03:56:46.258Z,1760
2022-10-24T04:02:05.010Z,1747
2022-10-24T04:07:22.899Z,1731
2022-10-24T04:12:41.696Z,1731
2022-10-24T04:17:59.916Z,1748
2022-10-24T04:23:18.668Z,1720
2022-10-24T04:28:37.447Z,1726
2022-10-24T04:33:55.656Z,1737
2022-10-24T04:39:14.462Z,1152
2022-10-24T04:44:32.679Z,1041
2022-10-24T04:49:50.844Z,928
2022-10-24T04:55:09.609Z,839
2022-10-24T05:00:27.864Z,799
2022-10-24T05:05:46.053Z,756
2022-10-24T05:11:04.268Z,859
2022-10-24T05:16:22.742Z,940
2022-10-24T05:21:40.648Z,995
2022-10-24T05:26:59.148Z,1010
2022-10-24T05:32:17.652Z,1022
2022-10-24T05:37:36.096Z,1028
2022-10-24T05:42:54.314Z,1026
2022-10-24T05:48:12.869Z,1034
2022-10-24T05:53:31.594Z,1045
2022-10-24T05:58:50.099Z,1065
2022-10-24T06:04:10.078Z,1096
2022-10-24T06:09:31.930Z,1154
2022-10-24T06:14:35.078Z,1188
2022-10-24T06:19:53.338Z,1192
2022-10-24T06:25:11.807Z,1199
2022-10-24T06:30:30.285Z,1201
2022-10-24T06:35:49.116Z,1208
2022-10-24T06:41:07.289Z,1213
2022-10-24T06:46:25.800Z,1212
2022-10-24T06:51:44.291Z,1213
2022-10-24T06:57:02.474Z,1214
2022-10-24T07:02:21.072Z,1224
2022-10-24T07:07:39.386Z,1222
2022-10-24T07:12:42.639Z,1224
2022-10-24T07:17:46.964Z,1228
2022-10-24T07:23:05.469Z,1229
2022-10-24T07:28:23.649Z,1232
2022-10-24T07:33:41.873Z,1240
2022-10-24T07:39:00.105Z,1246
2022-10-24T07:44:18.550Z,1242
2022-10-24T07:49:37.323Z,1251
2022-10-24T07:54:55.837Z,1247
2022-10-24T08:00:14.296Z,1250
2022-10-24T08:05:32.790Z,1251
2022-10-24T08:10:51.070Z,1252
2022-10-24T08:16:09.200Z,1256
2022-10-24T08:21:27.681Z,1252
2022-10-24T08:26:46.043Z,1248
2022-10-24T08:32:04.788Z,1251
2022-10-24T08:37:22.731Z,1249
2022-10-24T08:42:41.510Z,1258
2022-10-24T08:47:59.709Z,1257
2022-10-24T08:53:18.175Z,1250
2022-10-24T08:58:36.685Z,1246
2022-10-24T09:03:56.771Z,1240
2022-10-24T09:09:16.181Z,1237
2022-10-24T09:14:34.977Z,1229
2022-10-24T09:19:53.461Z,1222
2022-10-24T09:25:11.667Z,1216
2022-10-24T09:30:31.676Z,1207
2022-10-24T09:35:52.326Z,1204
2022-10-24T09:41:10.543Z,1201
2022-10-24T09:46:28.805Z,1189
2022-10-24T09:51:47.289Z,1183
2022-10-24T09:57:06.103Z,1179
2022-10-24T10:02:24.863Z,1174
2022-10-24T10:07:44.206Z,1171
2022-10-24T10:13:03.302Z,1166
2022-10-24T10:18:21.529Z,1163
2022-10-24T10:23:39.992Z,1165
2022-10-24T10:28:58.507Z,1158
2022-10-24T10:34:18.761Z,1158
2022-10-24T10:39:43.035Z,1156
2022-10-24T10:45:03.363Z,1150
2022-10-24T10:50:22.197Z,1144
2022-10-24T10:55:40.426Z,1137
2022-10-24T11:00:58.654Z,1133
2022-10-24T11:06:17.308Z,1131
2022-10-24T11:11:35.749Z,1132
2022-10-24T11:16:54.521Z,1122
2022-10-24T11:22:13.035Z,1118
2022-10-24T11:27:31.232Z,1119
2022-10-24T11:32:49.444Z,1116
2022-10-24T11:38:07.974Z,1112
2022-10-24T11:43:26.744Z,1108
2022-10-24T11:48:45.669Z,1127
2022-10-24T11:54:03.950Z,1139
2022-10-24T11:59:22.152Z,1142
2022-10-24T12:04:40.348Z,1139
2022-10-24T12:09:58.581Z,1142
2022-10-24T12:15:17.070Z,1142
2022-10-24T12:20:35.555Z,1159
2022-10-24T12:25:54.359Z,1167
2022-10-24T12:31:13.253Z,1161
2022-10-24T12:36:32.013Z,1157
2022-10-24T12:41:50.244Z,1163
2022-10-24T12:47:08.989Z,1171
2022-10-24T12:52:27.185Z,1166
2022-10-24T12:57:46.288Z,1170
2022-10-24T13:03:05.952Z,1179
2022-10-24T13:08:24.192Z,1207
2022-10-24T13:13:27.065Z,1224
2022-10-24T13:18:45.242Z,1236
2022-10-24T13:24:03.441Z,1253
2022-10-24T13:29:21.981Z,1271
2022-10-24T13:34:40.683Z,1304
2022-10-24T13:39:59.478Z,1330
2022-10-24T13:45:18.238Z,1328
2022-10-24T13:50:36.709Z,1317
2022-10-24T13:55:55.159Z,1313
2022-10-24T14:01:13.747Z,1313
2022-10-24T14:06:32.344Z,1307
2022-10-24T14:11:51.140Z,1293
2022-10-24T14:17:09.618Z,1306
2022-10-24T14:22:27.795Z,1319
2022-10-24T14:27:46.808Z,1341
2022-10-24T14:33:06.216Z,1386
2022-10-24T14:38:24.419Z,1412
2022-10-24T14:43:42.982Z,1403
2022-10-24T14:49:01.258Z,1393
2022-10-24T14:54:19.513Z,1389
2022-10-24T14:59:38.261Z,1395
2022-10-24T15:04:56.778Z,1399
2022-10-24T15:10:14.969Z,1415
2022-10-24T15:15:34.487Z,1403
2022-10-24T15:20:52.894Z,1407
2022-10-24T15:26:11.349Z,1429
2022-10-24T15:31:29.546Z,1454
2022-10-24T15:36:47.810Z,1470
2022-10-24T15:42:06.032Z,1458
2022-10-24T15:47:24.262Z,1462
2022-10-24T15:52:42.663Z,1461
2022-10-24T15:58:01.915Z,1463
2022-10-24T16:03:20.679Z,1456
2022-10-24T16:08:39.263Z,1454
2022-10-24T16:13:57.440Z,1477
2022-10-24T16:19:16.252Z,1522
2022-10-24T16:24:34.728Z,1543
2022-10-24T16:29:53.365Z,1545
2022-10-24T16:35:11.842Z,1549
2022-10-24T16:40:30.176Z,1545
2022-10-24T16:45:48.990Z,1512
2022-10-24T16:51:07.451Z,1490
2022-10-24T16:56:25.978Z,1512
2022-10-24T17:01:43.972Z,1521
2022-10-24T17:07:03.131Z,1520
2022-10-24T17:12:21.913Z,1522
2022-10-24T17:17:39.844Z,1527
2022-10-24T17:23:00.642Z,1558
2022-10-24T17:28:24.661Z,1576
2022-10-24T17:33:42.558Z,1583
2022-10-24T17:39:01.052Z,1560
2022-10-24T17:44:04.867Z,1562
2022-10-24T17:49:23.416Z,1576
2022-10-24T17:54:45.959Z,1592
2022-10-24T18:00:04.560Z,1606
2022-10-24T18:05:22.891Z,1615
2022-10-24T18:10:41.337Z,1619
2022-10-24T18:15:59.852Z,1624
2022-10-24T18:26:37.123Z,1318
2022-10-24T18:31:55.359Z,1521
2022-10-24T18:37:13.578Z,1594
2022-10-24T18:42:32.331Z,1649
2022-10-24T18:47:51.093Z,1676
2022-10-24T18:53:09.283Z,1682
2022-10-24T18:58:27.250Z,1679
2022-10-24T19:03:46.006Z,1680
2022-10-24T19:09:04.470Z,1690
2022-10-24T19:14:22.700Z,1691
2022-10-24T19:19:40.920Z,1783
2022-10-24T19:24:59.397Z,1845
2022-10-24T19:30:18.150Z,1867
2022-10-24T19:35:36.381Z,1876
2022-10-24T19:40:54.850Z,1888
2022-10-24T19:46:20.272Z,1919
2022-10-24T19:51:39.023Z,1920
2022-10-24T19:56:57.229Z,1928
2022-10-24T20:02:15.724Z,1935
2022-10-24T20:07:34.239Z,1947
2022-10-24T20:12:53.003Z,1953
2022-10-24T20:18:11.732Z,1958
2022-10-24T20:23:30.252Z,1968
2022-10-24T20:28:48.709Z,1968
2022-10-24T20:34:08.389Z,1950
2022-10-24T20:39:26.690Z,1965
2022-10-24T20:44:44.887Z,1977
2022-10-24T20:50:03.645Z,1976
2022-10-24T20:55:32.147Z,1993
2022-10-24T21:01:03.091Z,2003
2022-10-24T21:06:21.977Z,2006
2022-10-24T21:11:40.196Z,2003
2022-10-24T21:16:58.371Z,2012
2022-10-24T21:22:17.134Z,2008
2022-10-24T21:27:35.653Z,2014
2022-10-24T21:32:53.843Z,2014
2022-10-24T21:38:12.334Z,2008
2022-10-24T21:43:30.584Z,2004
2022-10-24T21:48:48.778Z,1997
2022-10-24T21:54:07.288Z,1999
2022-10-24T21:59:26.055Z,1992
2022-10-24T22:04:44.799Z,2002
2022-10-24T22:10:03.274Z,2045
2022-10-24T22:15:22.077Z,2060
2022-10-24T22:20:40.559Z,2055
2022-10-24T22:25:59.009Z,2049
2022-10-24T22:31:17.253Z,2040
2022-10-24T22:36:35.427Z,2025
2022-10-24T22:41:54.199Z,2021
2022-10-24T22:47:12.730Z,2015
2022-10-24T22:52:31.476Z,2014
2022-10-24T22:57:49.388Z,2003
2022-10-24T23:03:08.179Z,2002
2022-10-24T23:08:26.638Z,1997
2022-10-24T23:13:44.866Z,1996
2022-10-24T23:19:03.373Z,1987
2022-10-24T23:24:21.576Z,1976
2022-10-24T23:29:39.782Z,1973
2022-10-24T23:34:58.288Z,1974
2022-10-24T23:40:16.480Z,1970
2022-10-24T23:45:34.979Z,1956
2022-10-24T23:50:53.754Z,1951
2022-10-24T23:56:11.670Z,1940
